createdAt,value
2023-02-28T00:00:16.848Z,0.69
2023-02-28T00:02:47.938Z,0.46
2023-02-28T00:05:20.757Z,0.55
2023-02-28T00:07:51.472Z,0.66
2023-02-28T00:10:26.429Z,0.49
2023-02-28T00:13:01.259Z,0.35
2023-02-28T00:15:31.098Z,0.54
2023-02-28T00:18:01.029Z,0.47
2023-02-28T00:20:30.605Z,0.47
2023-02-28T00:23:00.216Z,0.64
2023-02-28T00:25:30.301Z,0.46
2023-02-28T00:28:00.121Z,0.55
2023-02-28T00:30:29.766Z,0.63
2023-02-28T00:33:00.366Z,0.60
2023-02-28T00:35:33.388Z,0.70
2023-02-28T00:38:03.358Z,0.75
2023-02-28T00:40:34.433Z,0.75
2023-02-28T00:43:04.979Z,0.71
2023-02-28T00:45:34.750Z,0.79
2023-02-28T00:48:07.096Z,0.73
2023-02-28T00:50:37.190Z,0.78
2023-02-28T00:53:06.979Z,0.67
2023-02-28T00:55:37.455Z,0.65
2023-02-28T00:58:09.705Z,0.75
2023-02-28T01:00:39.530Z,0.55
2023-02-28T01:03:09.632Z,0.38
2023-02-28T01:05:39.594Z,0.54
2023-02-28T01:08:11.175Z,0.60
2023-02-28T01:10:44.112Z,0.43
2023-02-28T01:13:14.524Z,0.61
2023-02-28T01:15:47.462Z,0.61
2023-02-28T01:18:17.113Z,0.65
2023-02-28T01:20:47.176Z,0.49
2023-02-28T01:23:18.803Z,0.60
2023-02-28T01:25:49.433Z,0.65
2023-02-28T01:28:19.077Z,0.61
2023-02-28T01:30:52.890Z,0.65
2023-02-28T01:33:24.603Z,0.87
2023-02-28T01:36:11.041Z,0.76
2023-02-28T01:38:42.398Z,0.84
2023-02-28T01:41:23.968Z,0.84
2023-02-28T01:43:59.616Z,1.16
2023-02-28T01:46:29.456Z,1.16
2023-02-28T01:49:02.368Z,1.08
2023-02-28T01:51:55.708Z,1.07
2023-02-28T01:54:28.602Z,1.27
2023-02-28T01:57:04.166Z,1.45
2023-02-28T01:59:38.502Z,1.32
2023-02-28T02:02:09.822Z,1.14
2023-02-28T02:04:42.734Z,1.02
2023-02-28T02:07:14.650Z,1.31
2023-02-28T02:09:46.219Z,1.36
2023-02-28T02:12:30.863Z,1.49
2023-02-28T02:15:09.389Z,1.74
2023-02-28T02:17:45.073Z,1.72
2023-02-28T02:20:46.201Z,1.85
2023-02-28T02:23:44.592Z,1.64
2023-02-28T02:26:40.504Z,1.96
2023-02-28T02:29:44.499Z,1.74
2023-02-28T02:32:22.626Z,2.06
2023-02-28T02:35:11.367Z,2.13
2023-02-28T02:37:50.114Z,2.16
2023-02-28T02:40:31.294Z,2.07
2023-02-28T02:43:16.031Z,2.28
2023-02-28T02:45:54.655Z,2.37
2023-02-28T02:48:29.889Z,2.52
2023-02-28T02:51:04.644Z,2.46
2023-02-28T02:53:37.718Z,2.58
2023-02-28T02:56:10.684Z,2.61
2023-02-28T02:58:44.254Z,2.69
2023-02-28T03:01:21.721Z,2.45
2023-02-28T03:03:51.716Z,2.46
2023-02-28T03:06:21.917Z,2.55
2023-02-28T03:08:52.005Z,2.27
2023-02-28T03:11:22.445Z,2.62
2023-02-28T03:14:06.952Z,2.55
2023-02-28T03:16:42.412Z,2.68
2023-02-28T03:19:34.629Z,2.61
2023-02-28T03:22:33.350Z,2.70
2023-02-28T03:25:15.226Z,2.61
2023-02-28T03:27:48.226Z,2.77
2023-02-28T03:30:26.654Z,2.66
2023-02-28T03:33:11.264Z,2.70
2023-02-28T03:35:47.191Z,2.71
2023-02-28T03:38:42.210Z,2.48
2023-02-28T03:41:18.184Z,2.59
2023-02-28T03:43:56.019Z,2.52
2023-02-28T03:46:28.947Z,2.46
2023-02-28T03:49:07.972Z,2.74
2023-02-28T03:51:40.121Z,2.88
2023-02-28T03:54:14.214Z,2.88
2023-02-28T03:56:47.003Z,2.89
2023-02-28T03:59:28.524Z,2.94
2023-02-28T04:01:59.809Z,2.66
2023-02-28T04:04:29.987Z,2.92
2023-02-28T04:07:08.507Z,2.83
2023-02-28T04:09:38.877Z,3.02
2023-02-28T04:12:10.570Z,2.73
2023-02-28T04:14:40.749Z,2.82
2023-02-28T04:17:10.636Z,2.69
2023-02-28T04:19:40.332Z,2.68
2023-02-28T04:22:12.312Z,2.77
2023-02-28T04:24:42.540Z,2.81
2023-02-28T04:27:12.619Z,2.81
2023-02-28T04:29:44.063Z,2.88
2023-02-28T04:32:13.856Z,2.87
2023-02-28T04:34:43.720Z,2.78
2023-02-28T04:37:14.495Z,2.61
2023-02-28T04:39:44.820Z,2.60
2023-02-28T04:42:14.835Z,2.75
2023-02-28T04:44:44.590Z,2.55
2023-02-28T04:47:14.814Z,2.74
2023-02-28T04:49:44.381Z,2.77
2023-02-28T04:52:14.225Z,2.62
2023-02-28T04:54:43.977Z,2.56
2023-02-28T04:57:13.901Z,2.67
2023-02-28T04:59:43.952Z,2.75
2023-02-28T05:02:15.518Z,2.79
2023-02-28T05:04:44.997Z,2.71
2023-02-28T05:07:15.091Z,2.81
2023-02-28T05:09:44.969Z,2.75
2023-02-28T05:12:14.440Z,2.75
2023-02-28T05:14:45.124Z,2.34
2023-02-28T05:17:14.962Z,2.73
2023-02-28T05:19:44.721Z,2.60
2023-02-28T05:22:19.738Z,2.94
2023-02-28T05:24:52.953Z,2.67
2023-02-28T05:27:22.817Z,2.47
2023-02-28T05:29:53.182Z,2.55
2023-02-28T05:32:22.909Z,2.58
2023-02-28T05:34:52.676Z,2.61
2023-02-28T05:37:22.810Z,2.65
2023-02-28T05:39:52.646Z,2.79
2023-02-28T05:42:22.218Z,2.89
2023-02-28T05:44:52.926Z,2.88
2023-02-28T05:47:22.763Z,2.72
2023-02-28T05:49:52.838Z,2.80
2023-02-28T05:52:25.631Z,2.88
2023-02-28T05:54:55.509Z,2.91
2023-02-28T05:57:25.931Z,2.91
2023-02-28T05:59:55.697Z,2.91
2023-02-28T06:02:25.515Z,2.64
2023-02-28T06:04:55.667Z,2.64
2023-02-28T06:07:27.558Z,3.18
2023-02-28T06:09:57.663Z,3.18
2023-02-28T06:12:27.676Z,2.77
2023-02-28T06:14:57.517Z,2.76
2023-02-28T06:17:27.392Z,2.71
2023-02-28T06:19:57.201Z,2.61
2023-02-28T06:22:26.780Z,3.00
2023-02-28T06:24:57.860Z,2.73
2023-02-28T06:27:27.728Z,2.90
2023-02-28T06:29:57.985Z,3.02
2023-02-28T06:32:27.841Z,2.57
2023-02-28T06:34:59.057Z,2.78
2023-02-28T06:37:28.580Z,3.09
2023-02-28T06:39:58.673Z,3.22
2023-02-28T06:42:29.759Z,2.87
2023-02-28T06:44:59.973Z,2.87
2023-02-28T06:47:29.755Z,3.28
2023-02-28T06:49:59.609Z,3.28
2023-02-28T06:52:29.120Z,3.01
2023-02-28T06:55:01.772Z,3.24
2023-02-28T06:57:32.706Z,3.05
2023-02-28T07:00:05.424Z,3.43
2023-02-28T07:02:35.718Z,3.49
2023-02-28T07:05:09.584Z,3.54
2023-02-28T07:07:41.144Z,3.68
2023-02-28T07:10:14.514Z,3.70
2023-02-28T07:12:46.223Z,3.64
2023-02-28T07:15:16.106Z,3.82
2023-02-28T07:17:46.079Z,3.85
2023-02-28T07:20:15.751Z,3.36
2023-02-28T07:22:45.310Z,3.81
2023-02-28T07:25:15.158Z,3.66
2023-02-28T07:27:44.906Z,3.64
2023-02-28T07:30:15.706Z,3.60
2023-02-28T07:32:46.000Z,3.66
2023-02-28T07:35:16.349Z,3.93
2023-02-28T07:37:48.025Z,4.02
2023-02-28T07:40:18.817Z,3.74
2023-02-28T07:42:48.518Z,4.01
2023-02-28T07:45:20.599Z,4.12
2023-02-28T07:47:50.632Z,4.22
2023-02-28T07:50:20.474Z,4.16
2023-02-28T07:52:50.333Z,4.37
2023-02-28T07:55:21.393Z,4.29
2023-02-28T07:57:51.237Z,4.67
2023-02-28T08:00:21.561Z,4.52
2023-02-28T08:02:52.161Z,4.79
2023-02-28T08:05:22.489Z,4.51
2023-02-28T08:07:52.492Z,4.70
2023-02-28T08:10:22.180Z,4.70
2023-02-28T08:12:52.301Z,4.49
2023-02-28T08:15:22.001Z,5.06
2023-02-28T08:17:53.418Z,4.96
2023-02-28T08:20:23.381Z,4.91
2023-02-28T08:22:53.366Z,4.72
2023-02-28T08:25:23.140Z,4.78
2023-02-28T08:27:55.903Z,4.90
2023-02-28T08:30:25.780Z,4.77
2023-02-28T08:32:56.316Z,5.08
2023-02-28T08:35:26.167Z,5.22
2023-02-28T08:37:56.013Z,4.95
2023-02-28T08:40:25.915Z,4.79
2023-02-28T08:42:55.785Z,5.18
2023-02-28T08:45:25.735Z,4.72
2023-02-28T08:47:56.899Z,4.74
2023-02-28T08:50:26.662Z,4.94
2023-02-28T08:52:56.529Z,4.75
2023-02-28T08:55:28.678Z,4.82
2023-02-28T08:57:59.503Z,5.13
2023-02-28T09:00:29.124Z,5.13
2023-02-28T09:02:58.917Z,4.77
2023-02-28T09:05:30.286Z,5.05
2023-02-28T09:08:00.161Z,5.46
2023-02-28T09:10:29.791Z,5.23
2023-02-28T09:12:59.604Z,5.37
2023-02-28T09:15:29.376Z,5.43
2023-02-28T09:18:01.195Z,5.37
2023-02-28T09:20:30.679Z,5.32
2023-02-28T09:23:00.805Z,5.37
2023-02-28T09:25:30.674Z,5.73
2023-02-28T09:28:00.464Z,6.06
2023-02-28T09:30:30.333Z,6.13
2023-02-28T09:33:00.185Z,5.88
2023-02-28T09:35:31.672Z,5.76
2023-02-28T09:38:03.137Z,6.05
2023-02-28T09:40:33.433Z,6.27
2023-02-28T09:43:03.397Z,5.97
2023-02-28T09:45:36.230Z,5.97
2023-02-28T09:48:29.368Z,6.28
2023-02-28T09:51:07.873Z,6.70
2023-02-28T09:53:40.936Z,6.94
2023-02-28T09:56:17.473Z,6.90
2023-02-28T09:59:04.631Z,6.88
2023-02-28T10:01:43.278Z,6.78
2023-02-28T10:04:27.899Z,6.78
2023-02-28T10:06:58.788Z,6.63
2023-02-28T10:09:31.863Z,6.67
2023-02-28T10:12:09.975Z,6.69
2023-02-28T10:14:42.807Z,7.01
2023-02-28T10:17:19.670Z,7.42
2023-02-28T10:20:05.436Z,7.62
2023-02-28T10:22:38.457Z,7.62
2023-02-28T10:25:20.483Z,7.63
2023-02-28T10:27:51.110Z,7.30
2023-02-28T10:30:23.530Z,7.59
2023-02-28T10:32:57.449Z,7.32
2023-02-28T10:35:28.743Z,7.30
2023-02-28T10:38:01.846Z,7.60
2023-02-28T10:40:34.685Z,7.80
2023-02-28T10:43:17.976Z,7.63
2023-02-28T10:46:04.362Z,7.78
2023-02-28T10:48:51.996Z,7.78
2023-02-28T10:51:23.558Z,7.58
2023-02-28T10:54:01.611Z,7.48
2023-02-28T10:56:29.618Z,7.63
2023-02-28T10:59:12.785Z,7.67
2023-02-28T11:01:49.295Z,7.61
2023-02-28T11:04:30.819Z,8.03
2023-02-28T11:07:08.650Z,7.38
2023-02-28T11:09:41.672Z,7.72
2023-02-28T11:12:25.188Z,7.73
2023-02-28T11:15:03.916Z,8.01
2023-02-28T11:17:35.042Z,7.86
2023-02-28T11:20:08.854Z,7.52
2023-02-28T11:22:44.627Z,7.86
2023-02-28T11:25:19.262Z,7.37
2023-02-28T11:27:57.488Z,7.73
2023-02-28T11:30:30.325Z,7.57
2023-02-28T11:32:59.951Z,7.64
2023-02-28T11:35:36.003Z,7.76
2023-02-28T11:38:13.679Z,7.84
2023-02-28T11:41:01.393Z,7.78
2023-02-28T11:43:52.266Z,7.72
2023-02-28T11:46:52.236Z,7.82
2023-02-28T11:49:33.833Z,8.32
2023-02-28T11:52:15.256Z,8.32
2023-02-28T11:55:06.225Z,7.92
2023-02-28T11:57:39.086Z,8.11
2023-02-28T12:00:26.250Z,8.26
2023-02-28T12:03:22.767Z,8.13
2023-02-28T12:05:55.806Z,7.83
2023-02-28T12:08:46.750Z,8.16
2023-02-28T12:11:29.147Z,8.27
2023-02-28T12:14:23.115Z,8.23
2023-02-28T12:16:58.611Z,8.41
2023-02-28T12:19:44.715Z,8.20
2023-02-28T12:22:30.377Z,8.60
2023-02-28T12:25:20.833Z,8.23
2023-02-28T12:27:53.466Z,8.53
2023-02-28T12:30:25.708Z,8.66
2023-02-28T12:33:07.318Z,8.27
2023-02-28T12:35:44.345Z,8.45
2023-02-28T12:38:23.150Z,8.64
2023-02-28T12:41:15.222Z,8.90
2023-02-28T12:43:48.426Z,8.53
2023-02-28T12:46:24.214Z,8.64
2023-02-28T12:48:57.640Z,8.92
2023-02-28T12:51:29.055Z,9.16
2023-02-28T12:54:29.243Z,8.97
2023-02-28T12:57:27.889Z,9.02
2023-02-28T13:00:00.749Z,9.33
2023-02-28T13:03:00.606Z,9.07
2023-02-28T13:05:34.975Z,9.12
2023-02-28T13:08:35.313Z,8.79
2023-02-28T13:11:09.998Z,8.64
2023-02-28T13:13:37.254Z,8.14
2023-02-28T13:16:13.040Z,7.96
2023-02-28T13:18:45.858Z,8.39
2023-02-28T13:21:30.532Z,8.90
2023-02-28T13:24:03.654Z,9.05
2023-02-28T13:26:39.375Z,8.49
2023-02-28T13:29:20.871Z,8.72
2023-02-28T13:32:11.546Z,8.70
2023-02-28T13:34:43.757Z,8.91
2023-02-28T13:37:27.060Z,8.80
2023-02-28T13:40:00.878Z,8.42
2023-02-28T13:42:48.329Z,8.39
2023-02-28T13:45:29.336Z,8.59
2023-02-28T13:48:04.703Z,8.78
2023-02-28T13:50:38.881Z,9.01
2023-02-28T13:53:20.827Z,9.04
2023-02-28T13:56:18.860Z,8.88
2023-02-28T13:58:56.781Z,8.65
2023-02-28T14:01:33.082Z,8.35
2023-02-28T14:04:38.856Z,8.74
2023-02-28T14:07:11.267Z,8.72
2023-02-28T14:09:44.232Z,8.83
2023-02-28T14:12:49.995Z,8.63
2023-02-28T14:15:35.128Z,8.87
2023-02-28T14:18:09.548Z,8.84
2023-02-28T14:20:40.868Z,8.81
2023-02-28T14:23:28.548Z,8.52
2023-02-28T14:26:07.842Z,8.78
2023-02-28T14:28:52.690Z,8.87
2023-02-28T14:31:30.071Z,9.19
2023-02-28T14:34:08.788Z,9.24
2023-02-28T14:36:40.655Z,9.31
2023-02-28T14:39:22.736Z,10.42
2023-02-28T14:41:53.040Z,10.90
2023-02-28T14:44:28.202Z,11.01
2023-02-28T14:47:07.090Z,10.25
2023-02-28T14:49:42.415Z,9.87
2023-02-28T14:52:19.613Z,9.23
2023-02-28T14:54:54.966Z,9.57
2023-02-28T14:57:33.001Z,8.73
2023-02-28T15:00:17.986Z,8.95
2023-02-28T15:02:50.690Z,9.35
2023-02-28T15:05:29.110Z,9.81
2023-02-28T15:08:21.454Z,9.54
2023-02-28T15:11:03.250Z,9.13
2023-02-28T15:13:45.943Z,9.12
2023-02-28T15:16:24.639Z,9.15
2023-02-28T15:19:00.219Z,8.90
2023-02-28T15:21:33.279Z,8.38
2023-02-28T15:24:05.953Z,8.49
2023-02-28T15:26:44.760Z,8.54
2023-02-28T15:29:23.320Z,8.56
2023-02-28T15:31:58.804Z,8.46
2023-02-28T15:34:42.882Z,8.51
2023-02-28T15:37:31.639Z,8.43
2023-02-28T15:40:19.191Z,8.33
2023-02-28T15:43:04.484Z,8.30
2023-02-28T15:46:02.630Z,8.27
2023-02-28T15:48:51.456Z,8.32
2023-02-28T15:51:23.519Z,8.15
2023-02-28T15:54:02.624Z,8.12
2023-02-28T15:56:35.963Z,8.12
2023-02-28T15:59:08.741Z,8.10
2023-02-28T16:01:40.416Z,7.74
2023-02-28T16:04:20.112Z,7.74
2023-02-28T16:07:01.763Z,7.73
2023-02-28T16:09:34.419Z,7.39
2023-02-28T16:12:06.418Z,7.52
2023-02-28T16:14:39.732Z,7.24
2023-02-28T16:17:24.212Z,7.45
2023-02-28T16:19:54.500Z,7.22
2023-02-28T16:25:05.237Z,7.35
2023-02-28T16:27:38.008Z,7.29
2023-02-28T16:30:12.303Z,6.93
2023-02-28T16:32:42.128Z,6.93
2023-02-28T16:35:15.147Z,6.70
2023-02-28T16:37:44.878Z,6.76
2023-02-28T16:40:19.149Z,6.94
2023-02-28T16:42:51.207Z,6.84
2023-02-28T16:45:23.718Z,6.99
2023-02-28T16:47:54.103Z,6.84
2023-02-28T16:50:26.372Z,6.77
2023-02-28T16:52:56.625Z,6.74
2023-02-28T16:55:28.368Z,6.93
2023-02-28T16:58:00.691Z,6.74
2023-02-28T17:00:32.411Z,6.67
2023-02-28T17:03:05.218Z,6.54
2023-02-28T17:05:38.478Z,6.45
2023-02-28T17:08:11.684Z,6.45
2023-02-28T17:10:41.456Z,6.42
2023-02-28T17:13:15.090Z,6.19
2023-02-28T17:15:43.443Z,6.25
2023-02-28T17:18:19.921Z,6.29
2023-02-28T17:20:50.724Z,5.96
2023-02-28T17:23:20.839Z,6.01
2023-02-28T17:25:58.211Z,6.03
2023-02-28T17:28:28.083Z,6.03
2023-02-28T17:30:57.973Z,6.28
2023-02-28T17:33:27.774Z,5.98
2023-02-28T17:35:57.741Z,5.95
2023-02-28T17:38:27.549Z,5.89
2023-02-28T17:40:58.282Z,5.86
2023-02-28T17:43:29.550Z,5.86
2023-02-28T17:45:59.671Z,5.91
2023-02-28T17:48:31.414Z,5.70
2023-02-28T17:51:01.226Z,5.63
2023-02-28T17:53:33.309Z,5.63
2023-02-28T17:56:03.386Z,5.67
2023-02-28T17:58:33.181Z,5.63
2023-02-28T18:01:03.236Z,5.54
2023-02-28T18:03:33.091Z,5.10
2023-02-28T18:06:04.162Z,5.01
2023-02-28T18:08:37.566Z,5.01
2023-02-28T18:11:07.387Z,4.95
2023-02-28T18:13:37.155Z,4.88
2023-02-28T18:16:07.545Z,4.71
2023-02-28T18:18:38.495Z,4.52
2023-02-28T18:21:09.904Z,4.82
2023-02-28T18:23:41.643Z,4.50
2023-02-28T18:26:12.200Z,4.68
2023-02-28T18:28:43.873Z,4.63
2023-02-28T18:31:16.680Z,4.26
2023-02-28T18:33:51.876Z,4.25
2023-02-28T18:36:22.627Z,4.05
2023-02-28T18:38:53.142Z,4.23
2023-02-28T18:41:23.373Z,4.27
2023-02-28T18:43:54.128Z,4.36
2023-02-28T18:46:24.319Z,4.33
2023-02-28T18:48:54.180Z,4.15
2023-02-28T18:51:29.034Z,4.18
2023-02-28T18:54:01.406Z,4.09
2023-02-28T18:56:31.593Z,3.77
2023-02-28T18:59:01.859Z,3.77
2023-02-28T19:01:33.544Z,3.94
2023-02-28T19:04:03.968Z,3.58
2023-02-28T19:06:35.133Z,3.31
2023-02-28T19:09:05.471Z,3.43
2023-02-28T19:11:36.682Z,3.30
2023-02-28T19:14:08.081Z,3.22
2023-02-28T19:16:38.290Z,3.03
2023-02-28T19:19:08.174Z,2.93
2023-02-28T19:21:38.012Z,3.10
2023-02-28T19:24:09.853Z,2.94
2023-02-28T19:26:39.688Z,2.80
2023-02-28T19:29:09.433Z,2.90
2023-02-28T19:31:39.282Z,3.06
2023-02-28T19:34:11.077Z,2.77
2023-02-28T19:36:40.840Z,2.67
2023-02-28T19:39:12.658Z,2.55
2023-02-28T19:41:42.716Z,2.55
2023-02-28T19:44:13.296Z,2.53
2023-02-28T19:46:44.366Z,2.66
2023-02-28T19:49:14.219Z,2.35
2023-02-28T19:51:44.554Z,2.48
2023-02-28T19:54:14.194Z,2.28
2023-02-28T19:56:44.057Z,2.11
2023-02-28T19:59:21.206Z,2.11
2023-02-28T20:01:46.266Z,2.34
2023-02-28T20:04:16.051Z,2.16
2023-02-28T20:06:45.810Z,2.36
2023-02-28T20:09:16.552Z,2.26
2023-02-28T20:11:47.536Z,2.34
2023-02-28T20:14:17.820Z,2.24
2023-02-28T20:16:48.130Z,2.34
2023-02-28T20:19:18.717Z,2.10
2023-02-28T20:21:48.587Z,2.18
2023-02-28T20:24:18.100Z,2.22
2023-02-28T20:26:47.949Z,2.20
2023-02-28T20:29:17.702Z,2.07
2023-02-28T20:31:47.764Z,2.15
2023-02-28T20:34:17.910Z,2.10
2023-02-28T20:36:47.814Z,1.96
2023-02-28T20:39:17.871Z,2.08
2023-02-28T20:41:47.629Z,2.07
2023-02-28T20:44:17.393Z,1.83
2023-02-28T20:46:47.138Z,1.79
2023-02-28T20:49:17.297Z,1.80
2023-02-28T20:51:47.106Z,1.78
2023-02-28T20:54:16.875Z,1.69
2023-02-28T20:56:46.798Z,1.69
2023-02-28T20:59:16.621Z,1.55
2023-02-28T21:01:46.536Z,1.94
2023-02-28T21:04:16.444Z,1.75
2023-02-28T21:06:47.893Z,1.64
2023-02-28T21:09:17.751Z,1.60
2023-02-28T21:11:47.966Z,1.89
2023-02-28T21:14:18.994Z,1.79
2023-02-28T21:16:48.888Z,1.61
2023-02-28T21:19:18.825Z,1.64
2023-02-28T21:21:49.014Z,1.63
2023-02-28T21:24:21.068Z,1.69
2023-02-28T21:26:51.874Z,1.69
2023-02-28T21:29:21.713Z,1.60
2023-02-28T21:31:53.877Z,1.30
2023-02-28T21:34:23.508Z,1.47
2023-02-28T21:36:54.343Z,1.53
2023-02-28T21:39:28.749Z,1.34
2023-02-28T21:42:00.509Z,1.11
2023-02-28T21:44:30.769Z,1.11
2023-02-28T21:47:03.287Z,1.24
2023-02-28T21:49:33.276Z,0.92
2023-02-28T21:52:03.038Z,1.24
2023-02-28T21:54:32.793Z,1.24
2023-02-28T21:57:02.619Z,1.24
2023-02-28T21:59:32.512Z,1.07
2023-02-28T22:02:02.369Z,1.11
2023-02-28T22:04:32.202Z,1.08
2023-02-28T22:07:02.165Z,1.20
2023-02-28T22:09:32.592Z,1.04
2023-02-28T22:12:02.655Z,1.10
2023-02-28T22:14:33.000Z,1.05
2023-02-28T22:17:03.162Z,0.86
2023-02-28T22:19:34.659Z,0.86
2023-02-28T22:22:04.437Z,0.83
2023-02-28T22:24:34.501Z,1.02
2023-02-28T22:27:04.331Z,0.95
2023-02-28T22:29:34.514Z,0.99
2023-02-28T22:32:04.770Z,0.98
2023-02-28T22:34:34.270Z,0.97
2023-02-28T22:37:04.052Z,0.85
2023-02-28T22:39:33.935Z,0.79
2023-02-28T22:42:03.693Z,0.83
2023-02-28T22:44:33.453Z,0.96
2023-02-28T22:47:03.580Z,0.91
2023-02-28T22:49:33.490Z,0.82
2023-02-28T22:52:03.263Z,0.84
2023-02-28T22:54:33.070Z,0.69
2023-02-28T22:57:02.973Z,0.85
2023-02-28T22:59:32.827Z,0.78
2023-02-28T23:02:02.637Z,0.84
2023-02-28T23:04:32.785Z,0.67
2023-02-28T23:07:02.555Z,0.51
2023-02-28T23:09:32.320Z,0.47
2023-02-28T23:12:02.057Z,0.47
2023-02-28T23:14:31.908Z,0.49
2023-02-28T23:17:01.980Z,0.68
2023-02-28T23:19:32.465Z,0.81
2023-02-28T23:22:03.550Z,0.83
2023-02-28T23:24:35.545Z,0.55
2023-02-28T23:27:07.248Z,0.65
2023-02-28T23:29:37.448Z,0.68
2023-02-28T23:32:09.070Z,0.37
2023-02-28T23:34:38.949Z,0.55
2023-02-28T23:37:08.745Z,0.49
2023-02-28T23:39:38.791Z,0.54
2023-02-28T23:42:10.944Z,0.37
2023-02-28T23:44:40.845Z,0.55
2023-02-28T23:47:12.242Z,0.43
2023-02-28T23:49:42.034Z,0.51
2023-02-28T23:52:14.021Z,0.30
2023-02-28T23:54:44.245Z,0.29
2023-02-28T23:57:14.154Z,0.29
2023-02-28T23:59:43.996Z,0.34
